Time;durP1;ratioP1;P1;durP2;ratioP2;P2;SDS_P1;SDS_P2;PMS_P1;PMS_P2;Temp;Humidity;BMP_temperature;BMP_pressure;BME280_temperature;BME280_humidity;BME280_pressure;Samples;Min_cycle;Max_cycle;Signal;HPM_P1;HPM_P2
2023/01/19 00:00:45;;;;;;;9.98;5.07;;;;;;;-1.39;99.21;99354.31;4940783;28;20066;-82
2023/01/19 00:03:14;;;;;;;9.65;6.35;;;;;;;-1.36;99.03;99354.34;4944020;28;20847;-82
2023/01/19 00:05:43;;;;;;;9.30;6.63;;;;;;;-1.29;98.44;99347.66;4937511;28;20646;-82
2023/01/19 00:08:18;;;;;;;12.02;5.65;;;;;;;-1.23;98.28;99350.31;4943459;28;20055;-81
2023/01/19 00:10:49;;;;;;;5.13;4.45;;;;;;;-1.17;97.65;99350.41;4944128;28;20074;-82
2023/01/19 00:13:16;;;;;;;8.90;5.68;;;;;;;-1.12;97.51;99353.09;4957785;28;21294;-81
2023/01/19 00:15:43;;;;;;;9.85;5.60;;;;;;;-1.08;97.08;99349.72;4948822;28;20054;-82
2023/01/19 00:18:10;;;;;;;8.20;5.38;;;;;;;-1.01;96.62;99342.97;4955809;28;20129;-81
2023/01/19 00:20:36;;;;;;;10.15;6.10;;;;;;;-1.08;96.89;99347.16;4935940;28;20082;-82
2023/01/19 00:23:04;;;;;;;9.85;5.97;;;;;;;-1.12;96.72;99345.38;4952695;28;20780;-81
2023/01/19 00:25:30;;;;;;;8.48;5.82;;;;;;;-1.11;96.82;99335.97;4936034;28;20047;-82
2023/01/19 00:27:57;;;;;;;10.80;6.13;;;;;;;-1.10;96.90;99346.25;4957106;28;20070;-82
2023/01/19 00:30:24;;;;;;;10.52;6.05;;;;;;;-1.09;96.53;99335.16;4955839;28;20101;-81
2023/01/19 00:32:53;;;;;;;13.25;6.80;;;;;;;-1.06;96.65;99337.75;4938283;28;20045;-81
2023/01/19 00:35:20;;;;;;;9.85;6.72;;;;;;;-1.14;97.46;99336.75;4950631;28;20043;-81
2023/01/19 00:37:46;;;;;;;11.77;6.38;;;;;;;-1.11;97.21;99347.06;4956396;28;20761;-81
2023/01/19 00:40:14;;;;;;;11.85;6.45;;;;;;;-1.08;97.11;99354.84;4973238;28;20035;-81
2023/01/19 00:42:40;;;;;;;9.27;6.53;;;;;;;-1.09;97.37;99358.25;4968698;28;20031;-81
2023/01/19 00:45:09;;;;;;;12.52;5.95;;;;;;;-1.11;97.06;99356.50;4973042;28;20046;-83
2023/01/19 00:47:38;;;;;;;9.88;6.10;;;;;;;-1.17;97.74;99352.97;4971368;28;20071;-82
2023/01/19 00:50:05;;;;;;;9.05;5.80;;;;;;;-1.17;97.93;99355.56;4947037;28;20129;-81
2023/01/19 00:52:39;;;;;;;8.80;6.47;;;;;;;-1.15;97.81;99362.44;4957171;28;20133;-82
2023/01/19 00:55:12;;;;;;;6.85;4.63;;;;;;;-1.15;97.88;99360.72;4935509;28;20046;-82
2023/01/19 00:57:40;;;;;;;10.38;5.60;;;;;;;-1.13;97.50;99364.19;4949801;28;20038;-81
2023/01/19 01:00:10;;;;;;;10.52;6.57;;;;;;;-1.18;97.81;99358.09;4953885;28;20106;-82
2023/01/19 01:02:39;;;;;;;10.80;5.65;;;;;;;-1.22;98.30;99364.03;4952241;28;20055;-81
2023/01/19 01:05:07;;;;;;;9.75;6.43;;;;;;;-1.27;98.49;99360.50;4951416;28;21547;-81
2023/01/19 01:07:39;;;;;;;10.63;5.43;;;;;;;-1.30;98.25;99366.47;4970546;28;20092;-82
2023/01/19 01:10:12;;;;;;;6.43;5.60;;;;;;;-1.30;99.05;99356.19;4937478;28;20051;-81
2023/01/19 01:12:41;;;;;;;6.97;5.22;;;;;;;-1.27;98.78;99357.94;4940423;28;20090;-81
2023/01/19 01:15:12;;;;;;;13.18;6.25;;;;;;;-1.31;98.42;99356.16;4920988;28;20046;-82
2023/01/19 01:17:46;;;;;;;8.55;6.20;;;;;;;-1.30;98.73;99360.44;4942155;28;20042;-81
2023/01/19 01:20:25;;;;;;;16.05;4.95;;;;;;;-1.34;99.01;99356.97;4955464;28;20620;-81
2023/01/19 01:22:54;;;;;;;11.23;5.90;;;;;;;-1.41;99.22;99367.94;4968125;28;20059;-81
2023/01/19 01:25:23;;;;;;;9.27;5.60;;;;;;;-1.41;99.29;99370.50;4942742;28;20644;-81
2023/01/19 01:27:51;;;;;;;11.82;5.63;;;;;;;-1.33;99.63;99369.81;4945383;28;20118;-81
2023/01/19 01:30:18;;;;;;;6.93;4.65;;;;;;;-1.33;98.85;99361.25;4967717;28;20070;-81
2023/01/19 01:32:44;;;;;;;10.57;5.65;;;;;;;-1.36;99.79;99367.19;4944967;28;20050;-81
2023/01/19 01:35:14;;;;;;;7.97;4.93;;;;;;;-1.38;99.92;99368.88;4962650;28;20064;-81
2023/01/19 01:37:42;;;;;;;9.00;6.15;;;;;;;-1.41;99.69;99379.09;4954472;28;20962;-81
2023/01/19 01:40:13;;;;;;;8.40;5.65;;;;;;;-1.44;99.96;99373.88;4946447;28;20050;-82
2023/01/19 01:42:41;;;;;;;9.95;6.38;;;;;;;-1.45;100.00;99371.31;4931829;28;20042;-81
2023/01/19 01:45:33;;;;;;;11.98;5.05;;;;;;;-1.50;100.00;99368.63;4961099;28;20179;-83
2023/01/19 01:48:22;;;;;;;12.70;5.47;;;;;;;-1.48;100.00;99364.41;4952021;28;20054;-81
2023/01/19 01:53:47;;;;;;;10.73;5.00;;;;;;;-1.64;100.00;99357.25;4957324;28;20666;-80
2023/01/19 01:56:22;;;;;;;9.77;5.65;;;;;;;-1.71;100.00;99346.00;4934561;28;20045;-81
2023/01/19 01:58:49;;;;;;;7.07;5.00;;;;;;;-1.69;100.00;99339.22;4951174;28;20121;-82
2023/01/19 02:04:00;;;;;;;7.85;5.28;;;;;;;-1.61;100.00;99344.50;4954081;28;20058;-82
2023/01/19 02:06:27;;;;;;;9.85;5.70;;;;;;;-1.63;100.00;99338.44;4947243;28;20053;-81
2023/01/19 02:14:36;;;;;;;9.88;6.05;;;;;;;-1.59;100.00;99348.81;4938758;28;21901;-81
2023/01/19 02:17:04;;;;;;;9.32;5.45;;;;;;;-1.55;100.00;99350.59;4935510;28;20042;-81
2023/01/19 02:19:41;;;;;;;9.15;5.97;;;;;;;-1.59;100.00;99359.09;4955537;28;20055;-81
2023/01/19 02:22:23;;;;;;;6.63;4.88;;;;;;;-1.58;100.00;99355.66;4942024;28;20054;-83
2023/01/19 02:24:50;;;;;;;10.63;5.95;;;;;;;-1.69;100.00;99359.72;4945047;28;20058;-83
2023/01/19 02:27:17;;;;;;;10.88;5.95;;;;;;;-1.71;100.00;99357.16;4945710;28;20125;-80
2023/01/19 02:29:45;;;;;;;9.63;5.88;;;;;;;-1.76;100.00;99355.31;4944566;28;20043;-80
2023/01/19 02:32:12;;;;;;;9.32;5.72;;;;;;;-1.70;100.00;99353.72;4944474;28;20155;-80
2023/01/19 02:34:41;;;;;;;9.05;6.05;;;;;;;-1.72;100.00;99349.38;4967269;28;20126;-81
2023/01/19 02:37:14;;;;;;;6.78;4.93;;;;;;;-1.74;100.00;99353.66;4947142;28;20114;-81
2023/01/19 02:39:55;;;;;;;11.07;5.35;;;;;;;-1.72;100.00;99357.09;4954522;28;20461;-79
2023/01/19 02:42:50;;;;;;;8.98;5.50;;;;;;;-1.73;100.00;99356.22;4959154;28;20050;-80
2023/01/19 02:45:21;;;;;;;6.50;5.20;;;;;;;-1.60;100.00;99361.59;4924958;28;20086;-79
2023/01/19 02:47:52;;;;;;;8.75;5.10;;;;;;;-1.54;100.00;99367.72;4948627;28;20072;-80
2023/01/19 02:50:42;;;;;;;9.93;6.28;;;;;;;-1.54;100.00;99361.72;4935097;28;20785;-80
2023/01/19 02:53:32;;;;;;;10.10;5.60;;;;;;;-1.48;100.00;99364.41;4964215;28;20040;-79
2023/01/19 02:56:42;;;;;;;11.93;6.18;;;;;;;-1.41;100.00;99363.69;4937609;28;20061;-81
2023/01/19 02:59:54;;;;;;;9.80;6.22;;;;;;;-1.42;100.00;99373.91;4972042;28;20113;-80
2023/01/19 03:02:56;;;;;;;7.30;5.15;;;;;;;-1.43;100.00;99374.78;4969901;28;20050;-81
2023/01/19 03:05:39;;;;;;;9.82;5.68;;;;;;;-1.45;100.00;99369.59;4947540;28;20050;-79
2023/01/19 03:08:40;;;;;;;9.20;6.28;;;;;;;-1.54;100.00;99364.28;4951383;28;20041;-81
2023/01/19 03:11:14;;;;;;;9.30;5.70;;;;;;;-1.54;100.00;99357.47;4954910;28;20039;-80
2023/01/19 03:13:56;;;;;;;8.75;5.63;;;;;;;-1.35;100.00;99356.09;4938829;28;20058;-78
2023/01/19 03:16:43;;;;;;;7.30;5.55;;;;;;;-1.22;100.00;99361.47;4928901;28;20059;-80
2023/01/19 03:19:13;;;;;;;9.40;6.50;;;;;;;-1.20;100.00;99359.75;4945962;28;20074;-80
2023/01/19 03:21:43;;;;;;;8.02;5.60;;;;;;;-1.13;100.00;99353.91;4929830;28;20142;-80
2023/01/19 03:24:12;;;;;;;9.48;5.88;;;;;;;-1.09;100.00;99353.13;4937763;28;20070;-80
2023/01/19 03:26:46;;;;;;;11.73;4.93;;;;;;;-1.01;100.00;99359.25;4929964;28;20042;-80
2023/01/19 03:29:14;;;;;;;5.97;4.90;;;;;;;-0.87;100.00;99362.06;4955907;28;20063;-80
2023/01/19 03:31:45;;;;;;;9.45;5.47;;;;;;;-0.79;99.28;99349.34;4935911;29;20121;-79
2023/01/19 03:34:15;;;;;;;11.77;6.38;;;;;;;-0.72;99.29;99356.31;4934743;28;20114;-79
2023/01/19 03:36:57;;;;;;;8.27;5.40;;;;;;;-0.65;98.62;99353.81;4931784;28;20047;-79
2023/01/19 03:39:27;;;;;;;7.63;5.90;;;;;;;-0.51;97.89;99349.75;4941055;29;20051;-79
2023/01/19 03:41:59;;;;;;;9.98;5.30;;;;;;;-0.42;97.83;99356.72;4933094;29;20054;-81
2023/01/19 03:44:28;;;;;;;9.88;6.28;;;;;;;-0.38;97.31;99358.50;4936227;28;20066;-80
2023/01/19 03:46:58;;;;;;;8.77;5.18;;;;;;;-0.27;96.63;99356.09;4920440;28;20059;-80
2023/01/19 03:49:25;;;;;;;11.68;6.25;;;;;;;-0.24;96.50;99349.28;4944204;28;20173;-81
2023/01/19 03:51:55;;;;;;;11.88;5.45;;;;;;;-0.23;96.69;99355.31;4912787;28;20290;-80
2023/01/19 03:54:22;;;;;;;5.25;4.38;;;;;;;-0.25;96.39;99350.13;4954935;28;20066;-82
2023/01/19 03:56:49;;;;;;;8.98;5.53;;;;;;;-0.26;96.09;99350.97;4947533;28;20069;-79
2023/01/19 03:59:16;;;;;;;11.07;5.90;;;;;;;-0.27;96.56;99356.09;4943407;28;20053;-81
2023/01/19 04:01:43;;;;;;;10.95;6.03;;;;;;;-0.31;96.31;99346.59;4941093;28;20110;-82
2023/01/19 04:04:09;;;;;;;6.60;4.72;;;;;;;-0.47;96.69;99355.81;4934697;28;20131;-81
2023/01/19 04:06:36;;;;;;;6.55;5.30;;;;;;;-0.55;98.12;99358.25;4916333;28;20134;-81
2023/01/19 04:09:03;;;;;;;7.82;5.63;;;;;;;-0.46;98.26;99354.97;4936470;28;20043;-80
2023/01/19 04:11:29;;;;;;;8.30;5.18;;;;;;;-0.37;98.29;99352.53;4935550;28;20050;-81
2023/01/19 04:13:56;;;;;;;6.80;5.07;;;;;;;-0.28;97.36;99346.66;4920623;28;20057;-81
2023/01/19 04:16:23;;;;;;;8.98;5.60;;;;;;;-0.21;97.01;99353.59;4925589;28;20094;-79
2023/01/19 04:18:51;;;;;;;7.68;5.07;;;;;;;-0.13;96.70;99348.56;4935939;28;20051;-80
2023/01/19 04:21:19;;;;;;;9.60;6.80;;;;;;;-0.07;96.29;99351.22;4935910;29;20091;-80
2023/01/19 04:23:46;;;;;;;9.15;4.88;;;;;;;-0.04;96.26;99354.69;4886819;28;20108;-80
2023/01/19 04:26:13;;;;;;;11.68;5.13;;;;;;;0.04;95.68;99344.50;4928809;28;20043;-81
2023/01/19 04:28:40;;;;;;;10.70;5.43;;;;;;;0.05;95.84;99353.94;4930831;28;20641;-80
2023/01/19 04:31:09;;;;;;;9.90;5.70;;;;;;;0.08;95.36;99353.09;4928960;29;20047;-80
2023/01/19 04:33:36;;;;;;;10.18;6.03;;;;;;;0.19;94.97;99359.25;4931065;28;20750;-81
2023/01/19 04:36:04;;;;;;;9.05;5.25;;;;;;;0.21;94.73;99357.59;4916901;28;20048;-81
2023/01/19 04:38:32;;;;;;;7.78;4.90;;;;;;;0.22;94.70;99343.00;4931536;28;20075;-81
2023/01/19 04:40:59;;;;;;;9.15;5.10;;;;;;;0.23;94.75;99343.00;4931138;28;20080;-80
2023/01/19 04:43:26;;;;;;;6.50;4.82;;;;;;;0.26;94.87;99352.47;4935801;28;20043;-82
2023/01/19 04:45:53;;;;;;;6.45;4.70;;;;;;;0.26;94.77;99352.47;4932974;28;20046;-81
2023/01/19 04:48:20;;;;;;;9.65;5.38;;;;;;;0.27;95.06;99347.34;4951812;28;20034;-80
2023/01/19 04:50:46;;;;;;;5.38;4.57;;;;;;;0.30;94.81;99352.53;4903383;28;20094;-81
2023/01/19 04:53:15;;;;;;;8.80;4.63;;;;;;;0.32;95.00;99344.81;4917869;28;20050;-83
2023/01/19 04:58:27;;;;;;;6.78;5.05;;;;;;;0.37;94.96;99350.03;5354845;23;20055;-80
2023/01/19 05:00:57;;;;;;;7.32;5.30;;;;;;;0.40;94.59;99353.50;4910776;28;20066;-81
2023/01/19 05:03:27;;;;;;;8.35;6.15;;;;;;;0.43;94.70;99347.50;4929181;29;20043;-81
2023/01/19 05:05:56;;;;;;;10.07;5.22;;;;;;;0.44;94.74;99344.09;4941983;28;20051;-82
2023/01/19 05:08:26;;;;;;;7.25;4.53;;;;;;;0.46;94.50;99351.00;4939778;28;20050;-82
2023/01/19 05:10:56;;;;;;;10.70;5.65;;;;;;;0.48;93.75;99345.84;4930252;28;20061;-82
2023/01/19 05:13:26;;;;;;;6.72;4.75;;;;;;;0.52;94.08;99352.75;4954825;28;20125;-81
2023/01/19 05:15:55;;;;;;;7.88;5.38;;;;;;;0.54;93.53;99347.66;4909535;28;20051;-80
2023/01/19 05:18:25;;;;;;;10.25;5.05;;;;;;;0.53;93.86;99344.19;4929783;28;20046;-80
2023/01/19 05:20:57;;;;;;;7.47;5.00;;;;;;;0.53;93.56;99339.03;4924142;28;20087;-81
2023/01/19 05:23:35;;;;;;;9.57;5.93;;;;;;;0.54;93.42;99337.34;4935028;28;20051;-82
2023/01/19 05:26:09;;;;;;;9.75;6.28;;;;;;;0.54;93.39;99338.19;4930263;28;20118;-81
2023/01/19 05:28:56;;;;;;;6.72;5.05;;;;;;;0.51;93.67;99343.34;4940262;28;20750;-81
2023/01/19 05:31:55;;;;;;;10.90;6.65;;;;;;;0.48;93.67;99340.69;4931600;28;20078;-81
2023/01/19 05:34:25;;;;;;;8.65;4.95;;;;;;;0.46;94.03;99340.69;4930569;28;20043;-81
2023/01/19 05:36:57;;;;;;;8.57;5.15;;;;;;;0.47;93.65;99339.84;4933022;28;20034;-83
2023/01/19 05:39:24;;;;;;;9.15;4.95;;;;;;;0.47;93.86;99344.13;4929268;29;20126;-82
2023/01/19 05:41:54;;;;;;;8.68;4.40;;;;;;;0.46;94.10;99345.84;4930410;29;20058;-79
2023/01/19 05:48:05;;;;;;;8.23;5.18;;;;;;;0.67;92.76;99343.50;4880349;29;21677;-80
2023/01/19 05:50:35;;;;;;;12.52;5.15;;;;;;;0.72;92.21;99340.09;4872303;29;20060;-80
2023/01/19 05:53:04;;;;;;;9.75;5.47;;;;;;;0.70;92.40;99353.81;4917942;29;20055;-82
2023/01/19 05:55:34;;;;;;;7.65;4.68;;;;;;;0.70;92.10;99348.66;4902622;29;20537;-81
2023/01/19 05:58:04;;;;;;;6.80;4.43;;;;;;;0.69;92.13;99344.34;4926019;28;20130;-81
2023/01/19 06:00:31;;;;;;;9.65;5.43;;;;;;;0.67;92.29;99353.78;4933032;29;20044;-80
2023/01/19 06:03:05;;;;;;;7.53;4.25;;;;;;;0.68;92.37;99334.88;4911982;29;20502;-81
2023/01/19 06:05:37;;;;;;;9.07;5.22;;;;;;;0.68;92.46;99347.78;4920113;29;20134;-80
2023/01/19 06:11:24;;;;;;;7.28;4.82;;;;;;;0.58;91.95;99350.25;4908664;29;21796;-81
2023/01/19 06:14:06;;;;;;;6.10;4.88;;;;;;;0.49;92.85;99353.59;4915103;29;20203;-81
2023/01/19 06:17:04;;;;;;;10.45;5.50;;;;;;;0.47;93.17;99357.00;4858154;29;20065;-83
2023/01/19 06:19:35;;;;;;;6.18;3.90;;;;;;;0.49;93.24;99345.00;4868512;29;20599;-81
2023/01/19 06:22:02;;;;;;;9.60;4.82;;;;;;;0.56;92.38;99345.94;4912499;29;20034;-82
2023/01/19 06:24:29;;;;;;;13.40;4.80;;;;;;;0.58;92.68;99347.69;4908647;29;20044;-82
2023/01/19 06:31:37;;;;;;;8.45;4.28;;;;;;;0.52;92.50;99355.34;4771825;29;20043;-81
2023/01/19 06:37:59;;;;;;;;;;;;;;;;;;;;;
2023/01/19 06:44:27;;;;;;;7.10;4.13;;;;;;;0.52;92.91;99354.47;4833140;29;20049;-82
2023/01/19 06:47:18;;;;;;;7.90;4.70;;;;;;;0.55;92.40;99357.97;4859413;29;20043;-83
2023/01/19 06:50:17;;;;;;;;;;;;;;;;;;;;;
2023/01/19 06:52:44;;;;;;;8.25;4.47;;;;;;;0.53;92.83;99369.94;4911052;29;20043;-81
2023/01/19 06:55:12;;;;;;;7.90;4.93;;;;;;;0.59;92.63;99366.59;4899571;29;20040;-81
2023/01/19 06:57:39;;;;;;;6.40;5.32;;;;;;;0.60;92.40;99365.72;4902080;29;20055;-82
2023/01/19 07:00:08;;;;;;;6.30;4.43;;;;;;;0.58;92.73;99373.44;4901631;29;20047;-81
2023/01/19 07:02:36;;;;;;;4.88;4.35;;;;;;;0.62;92.16;99375.19;4916613;29;20141;-81
2023/01/19 07:05:03;;;;;;;6.20;4.72;;;;;;;0.64;92.44;99370.06;4898959;29;20100;-81
2023/01/19 07:07:38;;;;;;;5.55;4.95;;;;;;;0.70;92.29;99377.00;4921720;29;20053;-82
2023/01/19 07:10:10;;;;;;;6.07;4.40;;;;;;;0.71;92.27;99381.31;4925053;29;20054;-81
2023/01/19 07:12:37;;;;;;;6.97;4.97;;;;;;;0.78;91.54;99383.06;4895918;29;20075;-82
2023/01/19 07:15:10;;;;;;;6.72;4.35;;;;;;;0.82;91.22;99382.25;4912234;29;20527;-81
2023/01/19 07:17:37;;;;;;;5.88;4.85;;;;;;;0.81;90.91;99385.72;4918957;29;20123;-82
2023/01/19 07:20:07;;;;;;;8.43;4.80;;;;;;;0.88;91.06;99397.78;4923367;29;20047;-81
2023/01/19 07:22:33;;;;;;;6.93;4.53;;;;;;;0.86;90.71;99394.34;4922213;29;20039;-82
2023/01/19 07:25:00;;;;;;;6.88;4.85;;;;;;;0.88;90.83;99408.09;4929113;29;20115;-81
2023/01/19 07:27:27;;;;;;;6.35;4.72;;;;;;;0.90;90.91;99406.41;4900669;29;20134;-80
2023/01/19 07:29:54;;;;;;;6.97;4.03;;;;;;;0.91;90.73;99403.00;4910697;29;20071;-81
2023/01/19 07:32:21;;;;;;;6.00;4.43;;;;;;;0.95;90.60;99406.44;4899234;29;20099;-81
2023/01/19 07:34:48;;;;;;;7.93;5.32;;;;;;;0.95;90.37;99415.03;4916178;29;20503;-81
2023/01/19 07:37:15;;;;;;;9.90;6.88;;;;;;;0.98;90.46;99419.38;4918406;29;20312;-82
2023/01/19 07:39:41;;;;;;;6.93;4.45;;;;;;;0.98;90.37;99417.66;4911641;29;20135;-82
2023/01/19 07:42:08;;;;;;;9.40;4.18;;;;;;;1.01;89.98;99421.97;4916002;29;20141;-82
2023/01/19 07:44:35;;;;;;;6.68;3.88;;;;;;;1.02;90.42;99417.66;4916802;29;20031;-81
2023/01/19 07:47:01;;;;;;;5.30;4.35;;;;;;;1.07;89.96;99421.16;4934001;29;20036;-81
2023/01/19 07:49:28;;;;;;;6.25;4.35;;;;;;;1.06;90.30;99422.88;4920280;29;20054;-80
2023/01/19 07:51:58;;;;;;;7.13;3.97;;;;;;;1.07;89.80;99424.59;4915036;29;20031;-81
2023/01/19 07:54:24;;;;;;;9.88;4.55;;;;;;;1.07;90.02;99432.34;4905360;29;20135;-82
2023/01/19 07:56:54;;;;;;;7.72;4.55;;;;;;;1.10;90.02;99428.94;4915720;29;20142;-81
2023/01/19 07:59:21;;;;;;;10.00;4.43;;;;;;;1.10;89.51;99436.66;4913009;29;20048;-81
2023/01/19 08:01:48;;;;;;;5.07;4.50;;;;;;;1.08;89.86;99440.94;4911210;29;20048;-81
2023/01/19 08:04:15;;;;;;;5.28;4.20;;;;;;;1.09;89.77;99435.78;4901387;29;20435;-80
2023/01/19 08:06:46;;;;;;;14.82;6.57;;;;;;;1.11;89.74;99448.72;4918405;29;20673;-81
2023/01/19 08:09:12;;;;;;;6.22;4.47;;;;;;;1.11;89.65;99446.97;4905107;29;20444;-81
2023/01/19 08:11:42;;;;;;;9.73;4.05;;;;;;;1.13;89.42;99442.72;4916318;29;20099;-82
2023/01/19 08:14:09;;;;;;;7.97;4.15;;;;;;;1.15;89.05;99450.47;4914059;29;20466;-81
2023/01/19 08:16:37;;;;;;;5.07;3.78;;;;;;;1.16;88.98;99441.84;4911206;29;20032;-82
2023/01/19 08:19:04;;;;;;;8.55;4.30;;;;;;;1.16;88.78;99444.44;4917755;29;20118;-81
2023/01/19 08:21:34;;;;;;;8.50;4.60;;;;;;;1.20;89.05;99445.34;4915507;29;20050;-81
2023/01/19 08:24:01;;;;;;;5.40;3.58;;;;;;;1.22;88.41;99446.22;4914218;29;20043;-82
2023/01/19 08:26:34;;;;;;;3.85;3.10;;;;;;;1.22;88.98;99449.66;4913148;29;20048;-81
2023/01/19 08:29:05;;;;;;;12.95;5.10;;;;;;;1.24;88.79;99453.13;4909184;29;20055;-81
2023/01/19 08:31:32;;;;;;;8.38;4.32;;;;;;;1.26;88.59;99450.56;4912459;29;20047;-82
2023/01/19 08:33:58;;;;;;;7.38;4.70;;;;;;;1.29;88.39;99453.16;4898001;29;20387;-82
2023/01/19 08:36:25;;;;;;;7.95;3.42;;;;;;;1.31;87.82;99443.72;4918531;29;20064;-81
2023/01/19 08:38:53;;;;;;;5.47;3.22;;;;;;;1.29;87.76;99451.44;4898470;29;20064;-81
2023/01/19 08:41:21;;;;;;;8.52;4.25;;;;;;;1.30;87.77;99460.03;4916985;29;20047;-82
2023/01/19 08:43:48;;;;;;;7.25;4.28;;;;;;;1.29;87.73;99454.03;4915220;29;20040;-82
2023/01/19 08:46:17;;;;;;;10.60;4.32;;;;;;;1.28;88.12;99457.44;4915198;29;20047;-80
2023/01/19 08:48:46;;;;;;;13.73;5.28;;;;;;;1.28;88.38;99459.19;4923922;29;20051;-80
2023/01/19 08:51:15;;;;;;;5.57;3.92;;;;;;;1.27;88.56;99453.13;4915083;29;20071;-80
2023/01/19 08:53:43;;;;;;;4.97;3.97;;;;;;;1.27;88.97;99466.03;4906348;29;21097;-81
2023/01/19 08:56:13;;;;;;;5.25;3.80;;;;;;;1.25;89.70;99469.44;4907112;29;20043;-81
2023/01/19 08:58:44;;;;;;;9.25;4.90;;;;;;;1.18;90.29;99476.25;4915316;29;20048;-81
2023/01/19 09:01:15;;;;;;;4.90;3.60;;;;;;;1.14;91.16;99477.94;4925457;29;20471;-80
2023/01/19 09:03:43;;;;;;;6.95;4.03;;;;;;;1.11;92.31;99479.63;4908473;29;20139;-81
2023/01/19 09:06:13;;;;;;;4.63;3.35;;;;;;;1.11;92.67;99482.22;4930937;29;20040;-80
2023/01/19 09:08:40;;;;;;;7.25;4.70;;;;;;;1.12;93.29;99481.34;4899443;29;20054;-81
2023/01/19 09:11:12;;;;;;;4.55;3.78;;;;;;;1.11;94.32;99477.06;4896673;29;20051;-81
2023/01/19 09:13:40;;;;;;;7.22;4.55;;;;;;;1.05;94.90;99495.03;4927544;29;20052;-81
2023/01/19 09:16:08;;;;;;;4.95;4.55;;;;;;;1.10;95.27;99490.78;4912768;29;20052;-81
2023/01/19 09:18:35;;;;;;;12.13;5.53;;;;;;;1.05;95.44;99489.88;4902137;29;20057;-81
2023/01/19 09:21:04;;;;;;;5.47;4.88;;;;;;;1.04;96.22;99494.16;4901207;29;20135;-81
2023/01/19 09:23:31;;;;;;;8.25;5.38;;;;;;;1.02;97.12;99497.56;4891961;29;20482;-81
2023/01/19 09:26:01;;;;;;;6.88;4.40;;;;;;;1.04;97.91;99501.88;4894412;29;20055;-82
2023/01/19 09:28:31;;;;;;;6.93;5.38;;;;;;;1.03;97.94;99496.72;4897940;29;20486;-83
2023/01/19 09:30:58;;;;;;;6.47;4.55;;;;;;;1.06;98.58;99513.06;4927089;29;20108;-81
2023/01/19 09:33:24;;;;;;;8.85;5.10;;;;;;;1.07;99.14;99509.66;4917078;29;20051;-82
2023/01/19 09:35:52;;;;;;;6.97;4.43;;;;;;;1.15;98.67;99509.75;4918883;29;20134;-82
2023/01/19 09:38:19;;;;;;;9.57;5.45;;;;;;;1.21;98.81;99514.94;4914941;29;20074;-82
2023/01/19 09:40:53;;;;;;;7.15;4.72;;;;;;;1.24;98.94;99504.69;4915259;29;20032;-81
2023/01/19 09:43:44;;;;;;;;;;;;;;;1.21;98.76;99512.38;4908899;29;20051;-82
2023/01/19 09:46:23;;;;;;;9.60;5.20;;;;;;;1.23;99.11;99508.09;4909545;29;20002;-83
2023/01/19 09:49:00;;;;;;;6.05;4.50;;;;;;;1.17;99.66;99510.59;4900825;29;20051;-82
2023/01/19 09:51:33;;;;;;;6.82;4.63;;;;;;;1.09;100.00;99519.97;4874508;29;20059;-82
2023/01/19 09:54:23;;;;;;;6.95;4.88;;;;;;;1.06;100.00;99519.97;4912874;29;20055;-82
2023/01/19 09:56:50;;;;;;;6.82;4.78;;;;;;;1.02;100.00;99520.75;4930787;29;20055;-81
2023/01/19 09:59:33;;;;;;;5.32;4.53;;;;;;;1.04;100.00;99535.38;4897498;29;20059;-81
2023/01/19 10:02:27;;;;;;;6.40;4.60;;;;;;;1.04;100.00;99540.53;4911529;29;20075;-81
2023/01/19 10:05:01;;;;;;;6.53;5.10;;;;;;;1.04;100.00;99537.09;4883055;29;20127;-81
2023/01/19 10:08:09;;;;;;;7.38;5.32;;;;;;;1.03;100.00;99537.94;4911461;29;20055;-81
2023/01/19 10:10:38;;;;;;;4.25;3.85;;;;;;;0.97;100.00;99537.03;4890018;29;20049;-81
2023/01/19 10:13:45;;;;;;;6.20;4.90;;;;;;;0.87;100.00;99539.47;4922051;29;20048;-82
2023/01/19 10:16:42;;;;;;;7.57;4.50;;;;;;;0.78;100.00;99542.78;4921253;29;20043;-81
2023/01/19 10:19:27;;;;;;;4.43;4.03;;;;;;;0.72;100.00;99543.59;4914729;29;20040;-81
2023/01/19 10:22:02;;;;;;;5.53;4.47;;;;;;;0.70;100.00;99541.84;4925466;29;20039;-82
2023/01/19 10:24:43;;;;;;;6.60;4.65;;;;;;;0.69;100.00;99538.38;4919913;29;20044;-84
2023/01/19 10:27:18;;;;;;;7.22;4.30;;;;;;;0.75;100.00;99537.63;4905603;29;20046;-81
2023/01/19 10:29:45;;;;;;;8.25;4.38;;;;;;;0.78;100.00;99540.22;4901275;29;20044;-80
2023/01/19 10:32:18;;;;;;;3.90;3.55;;;;;;;0.80;100.00;99539.41;4912226;29;20039;-81
2023/01/19 10:34:47;;;;;;;4.43;4.03;;;;;;;0.84;100.00;99548.03;4894268;29;20737;-81
2023/01/19 10:37:30;;;;;;;5.45;4.43;;;;;;;0.89;100.00;99540.38;4899183;29;20039;-81
2023/01/19 10:40:06;;;;;;;4.18;3.78;;;;;;;1.00;100.00;99541.34;4920525;29;20063;-82
2023/01/19 10:42:33;;;;;;;5.45;4.95;;;;;;;1.15;100.00;99536.38;4913126;29;20040;-82
2023/01/19 10:45:02;;;;;;;4.82;3.78;;;;;;;1.20;100.00;99539.03;4900256;29;20406;-82
2023/01/19 10:47:36;;;;;;;4.28;3.80;;;;;;;1.23;100.00;99538.19;4920779;29;20052;-82
2023/01/19 10:50:25;;;;;;;10.10;4.00;;;;;;;1.30;100.00;99539.97;4932198;29;20067;-82
2023/01/19 10:52:58;;;;;;;6.18;4.13;;;;;;;1.36;100.00;99537.47;4912452;29;20051;-82
2023/01/19 10:55:31;;;;;;;5.83;3.23;;;;;;;1.44;100.00;99543.56;4917879;29;20508;-81
2023/01/19 10:58:00;;;;;;;5.10;4.40;;;;;;;1.51;100.00;99547.06;4901422;29;20431;-81
2023/01/19 11:00:40;;;;;;;5.90;3.92;;;;;;;1.55;100.00;99556.56;4910724;29;20048;-81
2023/01/19 11:03:30;;;;;;;4.03;3.70;;;;;;;1.60;100.00;99552.34;4912310;29;20110;-82
2023/01/19 11:06:15;;;;;;;3.92;3.22;;;;;;;1.66;100.00;99551.50;4915065;29;20126;-82
2023/01/19 11:08:43;;;;;;;4.05;3.35;;;;;;;1.72;100.00;99555.84;4935005;29;20047;-82
2023/01/19 11:11:12;;;;;;;3.40;3.03;;;;;;;1.72;100.00;99554.16;4914097;29;20048;-81
2023/01/19 11:13:40;;;;;;;3.10;2.88;;;;;;;1.73;100.00;99549.84;4929632;29;20067;-82
2023/01/19 11:16:22;;;;;;;3.58;3.28;;;;;;;1.69;100.00;99554.09;4916532;29;20047;-82
2023/01/19 11:18:54;;;;;;;4.07;2.92;;;;;;;1.77;100.00;99552.47;4905337;29;20050;-82
2023/01/19 11:21:26;;;;;;;3.95;3.65;;;;;;;1.80;100.00;99551.66;4914580;29;20051;-81
2023/01/19 11:24:01;;;;;;;4.63;2.45;;;;;;;1.82;100.00;99555.09;4916739;29;20078;-81
2023/01/19 11:26:48;;;;;;;2.88;2.72;;;;;;;1.88;100.00;99546.53;4918531;29;20058;-82
2023/01/19 11:29:24;;;;;;;2.45;2.17;;;;;;;1.91;100.00;99552.59;4919753;29;20036;-82
2023/01/19 11:31:52;;;;;;;3.25;3.00;;;;;;;1.88;100.00;99555.16;4902429;29;20060;-82
2023/01/19 11:34:33;;;;;;;2.47;2.38;;;;;;;1.93;100.00;99560.34;4919272;29;20051;-81
2023/01/19 11:37:20;;;;;;;2.53;2.30;;;;;;;1.96;100.00;99547.47;4920256;29;20818;-82
2023/01/19 11:39:52;;;;;;;2.38;2.28;;;;;;;1.96;100.00;99562.97;4935240;29;20111;-82
2023/01/19 11:42:20;;;;;;;2.92;2.40;;;;;;;1.87;100.00;99561.16;4921380;29;20042;-82
2023/01/19 11:45:17;;;;;;;2.17;2.08;;;;;;;1.90;100.00;99565.47;4915531;29;20182;-81
2023/01/19 11:47:48;;;;;;;2.88;2.67;;;;;;;1.87;100.00;99558.56;4906881;29;20423;-82
2023/01/19 11:50:25;;;;;;;3.25;2.83;;;;;;;1.81;100.00;99558.50;4919236;29;20529;-83
2023/01/19 11:53:11;;;;;;;3.22;2.50;;;;;;;1.72;100.00;99566.16;4905925;29;20146;-82
2023/01/19 11:55:59;;;;;;;2.60;2.40;;;;;;;1.59;100.00;99565.19;4931955;29;20064;-81
2023/01/19 11:58:26;;;;;;;3.67;3.38;;;;;;;1.44;100.00;99564.19;4921730;29;20064;-82
2023/01/19 12:01:28;;;;;;;3.40;2.95;;;;;;;1.38;100.00;99564.09;4897343;29;20091;-83
2023/01/19 12:04:09;;;;;;;3.30;2.90;;;;;;;1.32;100.00;99569.22;4925058;29;20102;-81
2023/01/19 12:06:41;;;;;;;3.58;3.17;;;;;;;1.27;100.00;99574.31;4916040;29;20040;-81
2023/01/19 12:09:23;;;;;;;3.47;3.28;;;;;;;1.14;100.00;99580.19;4901347;29;20100;-82
2023/01/19 12:12:27;;;;;;;4.00;2.83;;;;;;;0.96;100.00;99573.09;4938450;29;20043;-81
2023/01/19 12:15:24;;;;;;;5.38;3.92;;;;;;;0.78;100.00;99576.28;4909424;29;20082;-82
2023/01/19 12:17:56;;;;;;;3.97;3.40;;;;;;;0.70;100.00;99583.06;4935801;29;20478;-80
2023/01/19 12:20:43;;;;;;;4.18;3.78;;;;;;;0.61;100.00;99586.34;4921877;29;20043;-83
2023/01/19 12:23:36;;;;;;;3.90;3.30;;;;;;;0.50;100.00;99583.63;4902031;29;20051;-83
2023/01/19 12:26:34;;;;;;;4.78;4.47;;;;;;;0.42;100.00;99583.53;4940414;29;20039;-81
2023/01/19 12:29:12;;;;;;;5.07;3.63;;;;;;;0.46;100.00;99587.88;4931134;29;20051;-80
2023/01/19 12:31:41;;;;;;;4.18;3.72;;;;;;;0.55;100.00;99588.84;4897651;29;20059;-82
2023/01/19 12:34:23;;;;;;;4.88;3.97;;;;;;;0.59;100.00;99580.34;4907445;29;20047;-82
2023/01/19 12:37:16;;;;;;;5.43;4.32;;;;;;;0.60;100.00;99589.78;4938210;29;20036;-82